TAIP48 YCBG-YCBG
Flight info
| Callsign | TAIP48 |
|---|---|
| Flight time | 0h 6m |
| Altitude | 1500 |
| Route | YMLT |
| Aircraft | SR22/L-SDGRY/S |
Departure
| Time | 2026-04-24 10:42 |
|---|---|
| Airport | Cambridge Aerodrome (YCBG) |
Arrival
| Time | 2026-04-24 10:49 |
|---|---|
| Airport | Cambridge Aerodrome (YCBG) |
| Time | Latitude | Longitude | Altitude | Speed | Heading |
|---|---|---|---|---|---|
| 2026-04-24 10:32 | -42.82932 | 147.47667 | 60 ft | 0 kts | 338° |
| 2026-04-24 10:33 | -42.82930 | 147.47675 | 61 ft | 8 kts | 4° |
| 2026-04-24 10:33 | -42.82928 | 147.47676 | 60 ft | 0 kts | 199° |
| 2026-04-24 10:34 | -42.82932 | 147.47667 | 60 ft | 0 kts | 333° |
| 2026-04-24 10:39 | -42.82908 | 147.47696 | 60 ft | 8 kts | 93° |
| 2026-04-24 10:39 | -42.82911 | 147.47761 | 59 ft | 0 kts | 100° |
| 2026-04-24 10:39 | -42.82916 | 147.47777 | 59 ft | 2 kts | 111° |
| 2026-04-24 10:40 | -42.82933 | 147.47870 | 56 ft | 13 kts | 100° |
| 2026-04-24 10:40 | -42.82954 | 147.47978 | 50 ft | 7 kts | 109° |
| 2026-04-24 10:40 | -42.82972 | 147.48042 | 46 ft | 8 kts | 113° |
| 2026-04-24 10:40 | -42.82992 | 147.48105 | 43 ft | 12 kts | 109° |
| 2026-04-24 10:41 | -42.83020 | 147.48230 | 37 ft | 14 kts | 115° |
| 2026-04-24 10:41 | -42.83041 | 147.48347 | 34 ft | 10 kts | 91° |
| 2026-04-24 10:41 | -42.83019 | 147.48372 | 34 ft | 0 kts | 351° |
| 2026-04-24 10:41 | -42.82991 | 147.48335 | 56 ft | 22 kts | 326° |
| 2026-04-24 10:42 | -42.82613 | 147.47836 | 193 ft | 76 kts | 319° |
| 2026-04-24 10:42 | -42.82209 | 147.47288 | 525 ft | 74 kts | 314° |
| 2026-04-24 10:42 | -42.81986 | 147.46980 | 764 ft | 72 kts | 319° |
| 2026-04-24 10:42 | -42.81650 | 147.46364 | 847 ft | 100 kts | 289° |
| 2026-04-24 10:43 | -42.81907 | 147.45407 | 867 ft | 123 kts | 224° |
| 2026-04-24 10:43 | -42.82764 | 147.45227 | 914 ft | 132 kts | 162° |
| 2026-04-24 10:43 | -42.83691 | 147.46123 | 1226 ft | 113 kts | 136° |
| 2026-04-24 10:43 | -42.84211 | 147.46780 | 1310 ft | 109 kts | 130° |
| 2026-04-24 10:44 | -42.84549 | 147.47314 | 1026 ft | 118 kts | 123° |
| 2026-04-24 10:44 | -42.84876 | 147.48358 | 599 ft | 118 kts | 78° |
| 2026-04-24 10:44 | -42.84491 | 147.49133 | 500 ft | 88 kts | 20° |
| 2026-04-24 10:44 | -42.83950 | 147.49155 | 418 ft | 76 kts | 345° |
| 2026-04-24 10:45 | -42.83504 | 147.48950 | 375 ft | 62 kts | 329° |
| 2026-04-24 10:45 | -42.83063 | 147.48406 | 110 ft | 73 kts | 317° |
| 2026-04-24 10:45 | -42.82713 | 147.47957 | 55 ft | 65 kts | 324° |
| 2026-04-24 10:45 | -42.82304 | 147.47443 | 199 ft | 88 kts | 319° |
| 2026-04-24 10:46 | -42.82023 | 147.47067 | 391 ft | 94 kts | 319° |
| 2026-04-24 10:46 | -42.81603 | 147.46306 | 630 ft | 103 kts | 290° |
| 2026-04-24 10:46 | -42.81835 | 147.45354 | 774 ft | 124 kts | 227° |
| 2026-04-24 10:46 | -42.82989 | 147.45438 | 845 ft | 138 kts | 151° |
| 2026-04-24 10:47 | -42.83816 | 147.46159 | 831 ft | 145 kts | 143° |
| 2026-04-24 10:47 | -42.84340 | 147.46724 | 831 ft | 145 kts | 139° |
| 2026-04-24 10:47 | -42.85027 | 147.47624 | 1102 ft | 123 kts | 133° |
| 2026-04-24 10:47 | -42.85262 | 147.48729 | 881 ft | 134 kts | 74° |
| 2026-04-24 10:48 | -42.84754 | 147.49620 | 576 ft | 110 kts | 16° |
| 2026-04-24 10:48 | -42.84045 | 147.49634 | 464 ft | 100 kts | 339° |
| 2026-04-24 10:48 | -42.83373 | 147.48776 | 168 ft | 95 kts | 319° |
| 2026-04-24 10:48 | -42.82933 | 147.48238 | 80 ft | 70 kts | 319° |
| 2026-04-24 10:49 | -42.82709 | 147.47948 | 54 ft | 13 kts | 330° |
| 2026-04-24 10:49 | -42.82682 | 147.47916 | 73 ft | 23 kts | 328° |
| 2026-04-24 10:49 | -42.82408 | 147.47571 | 115 ft | 77 kts | 318° |
| 2026-04-24 10:49 | -42.82013 | 147.46976 | 302 ft | 86 kts | 297° |
| 2026-04-24 10:50 | -42.82257 | 147.45976 | 717 ft | 91 kts | 232° |
| 2026-04-24 10:50 | -42.82735 | 147.45511 | 1074 ft | 90 kts | 215° |
| 2026-04-24 10:50 | -42.83441 | 147.45593 | 1096 ft | 118 kts | 151° |
| 2026-04-24 10:50 | -42.83898 | 147.46034 | 1109 ft | 119 kts | 140° |
| 2026-04-24 10:51 | -42.84528 | 147.46785 | 1105 ft | 121 kts | 133° |
| 2026-04-24 10:51 | -42.85052 | 147.47681 | 968 ft | 122 kts | 111° |
| 2026-04-24 10:51 | -42.84919 | 147.49136 | 682 ft | 119 kts | 45° |
| 2026-04-24 10:51 | -42.84283 | 147.49677 | 552 ft | 103 kts | 2° |
| 2026-04-24 10:52 | -42.83695 | 147.49263 | 311 ft | 99 kts | 311° |
| 2026-04-24 10:52 | -42.83246 | 147.48636 | 148 ft | 81 kts | 319° |
| 2026-04-24 10:52 | -42.82996 | 147.48318 | 69 ft | 66 kts | 320° |
| 2026-04-24 10:52 | -42.82753 | 147.48019 | 54 ft | 28 kts | 317° |
| 2026-04-24 10:53 | -42.82536 | 147.47739 | 95 ft | 60 kts | 317° |
| 2026-04-24 10:53 | -42.82077 | 147.47148 | 269 ft | 72 kts | 320° |
| 2026-04-24 10:53 | -42.81688 | 147.46672 | 453 ft | 75 kts | 321° |
| 2026-04-24 10:53 | -42.81314 | 147.46208 | 723 ft | 73 kts | 318° |
| 2026-04-24 10:54 | -42.81328 | 147.45488 | 974 ft | 90 kts | 248° |
| 2026-04-24 10:54 | -42.81656 | 147.45091 | 1117 ft | 100 kts | 212° |
| 2026-04-24 10:54 | -42.82345 | 147.45111 | 1253 ft | 106 kts | 152° |
| 2026-04-24 10:54 | -42.82960 | 147.45666 | 1276 ft | 107 kts | 148° |
| 2026-04-24 10:55 | -42.83802 | 147.46455 | 1243 ft | 121 kts | 144° |
| 2026-04-24 10:55 | -42.84512 | 147.47170 | 1049 ft | 127 kts | 140° |
| 2026-04-24 10:55 | -42.84928 | 147.47746 | 923 ft | 129 kts | 118° |
| 2026-04-24 10:55 | -42.84827 | 147.49178 | 573 ft | 112 kts | 46° |
| 2026-04-24 10:56 | -42.84452 | 147.49649 | 493 ft | 106 kts | 31° |
| 2026-04-24 10:56 | -42.83838 | 147.49495 | 326 ft | 98 kts | 309° |
| 2026-04-24 10:56 | -42.83224 | 147.48613 | 137 ft | 97 kts | 317° |
| 2026-04-24 10:56 | -42.82721 | 147.47984 | 71 ft | 103 kts | 323° |
| 2026-04-24 10:57 | -42.82226 | 147.47354 | 237 ft | 101 kts | 323° |
| 2026-04-24 10:57 | -42.81835 | 147.46930 | 254 ft | 107 kts | 322° |
| 2026-04-24 10:57 | -42.81129 | 147.46187 | 758 ft | 85 kts | 327° |
| 2026-04-24 10:57 | -42.80803 | 147.45487 | 878 ft | 115 kts | 276° |
| 2026-04-24 10:58 | -42.81277 | 147.44617 | 1206 ft | 126 kts | 211° |
| 2026-04-24 10:58 | -42.82148 | 147.44699 | 1364 ft | 133 kts | 151° |
| 2026-04-24 10:58 | -42.82920 | 147.45428 | 1341 ft | 140 kts | 142° |
| 2026-04-24 10:58 | -42.83463 | 147.45981 | 1216 ft | 148 kts | 142° |
| 2026-04-24 10:59 | -42.84521 | 147.47101 | 1246 ft | 140 kts | 142° |
| 2026-04-24 10:59 | -42.85035 | 147.47633 | 1210 ft | 141 kts | 142° |
| 2026-04-24 10:59 | -42.85782 | 147.48529 | 976 ft | 142 kts | 118° |
| 2026-04-24 10:59 | -42.85594 | 147.50024 | 712 ft | 125 kts | 31° |
| 2026-04-24 11:00 | -42.84773 | 147.50406 | 425 ft | 124 kts | 353° |
| 2026-04-24 11:00 | -42.84121 | 147.49832 | 379 ft | 117 kts | 316° |
| 2026-04-24 11:00 | -42.83536 | 147.48997 | 164 ft | 116 kts | 317° |
| 2026-04-24 11:00 | -42.83190 | 147.48557 | 156 ft | 90 kts | 318° |
| 2026-04-24 11:01 | -42.82786 | 147.48053 | 81 ft | 71 kts | 321° |
| 2026-04-24 11:01 | -42.82388 | 147.47556 | 149 ft | 86 kts | 318° |
| 2026-04-24 11:01 | -42.81782 | 147.46785 | 369 ft | 91 kts | 322° |
| 2026-04-24 11:01 | -42.81346 | 147.46214 | 723 ft | 86 kts | 303° |
| 2026-04-24 11:02 | -42.81410 | 147.45373 | 1024 ft | 102 kts | 245° |
| 2026-04-24 11:02 | -42.82084 | 147.44894 | 1066 ft | 122 kts | 190° |
| 2026-04-24 11:02 | -42.82667 | 147.44960 | 1008 ft | 130 kts | 166° |
| 2026-04-24 11:02 | -42.83460 | 147.45453 | 1112 ft | 124 kts | 155° |
| 2026-04-24 11:03 | -42.84547 | 147.46141 | 1001 ft | 138 kts | 156° |
| 2026-04-24 11:03 | -42.85336 | 147.46921 | 835 ft | 141 kts | 121° |
| 2026-04-24 11:03 | -42.85516 | 147.48135 | 722 ft | 128 kts | 74° |
| 2026-04-24 11:03 | -42.85178 | 147.49179 | 699 ft | 115 kts | 51° |
| 2026-04-24 11:04 | -42.84797 | 147.49686 | 585 ft | 120 kts | 32° |
| 2026-04-24 11:04 | -42.84047 | 147.49762 | 386 ft | 105 kts | 319° |
| 2026-04-24 11:04 | -42.83585 | 147.49062 | 251 ft | 96 kts | 317° |
| 2026-04-24 11:04 | -42.82967 | 147.48285 | 77 ft | 87 kts | 318° |
| 2026-04-24 11:05 | -42.82585 | 147.47789 | 186 ft | 55 kts | 323° |
| 2026-04-24 11:05 | -42.82434 | 147.47617 | 371 ft | 42 kts | 319° |
| 2026-04-24 11:05 | -42.81993 | 147.47111 | 521 ft | 74 kts | 320° |
| 2026-04-24 11:05 | -42.81765 | 147.46764 | 680 ft | 74 kts | 290° |
| 2026-04-24 11:06 | -42.81943 | 147.46126 | 924 ft | 81 kts | 237° |
| 2026-04-24 11:06 | -42.82590 | 147.45494 | 992 ft | 102 kts | 175° |
| 2026-04-24 11:06 | -42.83229 | 147.45973 | 966 ft | 105 kts | 147° |
| 2026-04-24 11:06 | -42.83820 | 147.46587 | 1010 ft | 110 kts | 141° |
| 2026-04-24 11:07 | -42.84833 | 147.47768 | 951 ft | 118 kts | 131° |
| 2026-04-24 11:07 | -42.85073 | 147.48793 | 742 ft | 112 kts | 71° |
| 2026-04-24 11:07 | -42.84642 | 147.49648 | 520 ft | 109 kts | 27° |
| 2026-04-24 11:08 | -42.83783 | 147.49367 | 308 ft | 104 kts | 310° |
| 2026-04-24 11:08 | -42.83297 | 147.48675 | 149 ft | 96 kts | 320° |
| 2026-04-24 11:08 | -42.82859 | 147.48125 | 137 ft | 56 kts | 314° |
| 2026-04-24 11:08 | -42.82769 | 147.47975 | 159 ft | 16 kts | 303° |
| 2026-04-24 11:09 | -42.82611 | 147.47833 | 334 ft | 46 kts | 315° |
| 2026-04-24 11:09 | -42.82383 | 147.47531 | 348 ft | 80 kts | 313° |
| 2026-04-24 11:09 | -42.81827 | 147.46768 | 539 ft | 92 kts | 316° |
| 2026-04-24 11:09 | -42.81345 | 147.46127 | 569 ft | 99 kts | 316° |
| 2026-04-24 11:10 | -42.80986 | 147.45358 | 666 ft | 99 kts | 278° |
| 2026-04-24 11:10 | -42.81131 | 147.44777 | 720 ft | 100 kts | 234° |
| 2026-04-24 11:10 | -42.81975 | 147.44781 | 740 ft | 102 kts | 144° |
| 2026-04-24 11:10 | -42.82346 | 147.45157 | 753 ft | 99 kts | 144° |
| 2026-04-24 11:11 | -42.82869 | 147.45674 | 842 ft | 86 kts | 147° |
| 2026-04-24 11:11 | -42.83530 | 147.46462 | 726 ft | 102 kts | 134° |
| 2026-04-24 11:11 | -42.84017 | 147.47154 | 693 ft | 99 kts | 127° |
| 2026-04-24 11:11 | -42.84430 | 147.47897 | 687 ft | 96 kts | 124° |
| 2026-04-24 11:12 | -42.84634 | 147.48712 | 578 ft | 91 kts | 75° |
| 2026-04-24 11:12 | -42.84466 | 147.49219 | 425 ft | 88 kts | 40° |
| 2026-04-24 11:12 | -42.83958 | 147.49561 | 285 ft | 83 kts | 343° |
| 2026-04-24 11:12 | -42.83405 | 147.48837 | 148 ft | 83 kts | 316° |
| 2026-04-24 11:13 | -42.83008 | 147.48334 | 82 ft | 73 kts | 319° |
| 2026-04-24 11:13 | -42.82672 | 147.47910 | 71 ft | 61 kts | 327° |
| 2026-04-24 11:13 | -42.82345 | 147.47487 | 145 ft | 69 kts | 319° |
| 2026-04-24 11:13 | -42.82128 | 147.47211 | 309 ft | 55 kts | 322° |
| 2026-04-24 11:14 | -42.81902 | 147.46896 | 480 ft | 49 kts | 300° |
| 2026-04-24 11:14 | -42.81996 | 147.46394 | 586 ft | 65 kts | 243° |
| 2026-04-24 11:14 | -42.82518 | 147.45995 | 784 ft | 73 kts | 179° |
| 2026-04-24 11:14 | -42.83029 | 147.46231 | 886 ft | 81 kts | 156° |
| 2026-04-24 11:15 | -42.83570 | 147.46558 | 950 ft | 91 kts | 158° |
| 2026-04-24 11:15 | -42.84215 | 147.46948 | 893 ft | 107 kts | 153° |
| 2026-04-24 11:15 | -42.84634 | 147.47298 | 888 ft | 110 kts | 135° |
| 2026-04-24 11:15 | -42.84952 | 147.48239 | 699 ft | 110 kts | 84° |
| 2026-04-24 11:16 | -42.84412 | 147.49248 | 468 ft | 102 kts | 15° |
| 2026-04-24 11:16 | -42.83756 | 147.49242 | 270 ft | 93 kts | 333° |
| 2026-04-24 11:16 | -42.83271 | 147.48665 | 146 ft | 97 kts | 317° |
| 2026-04-24 11:16 | -42.82776 | 147.48021 | 104 ft | 97 kts | 319° |
| 2026-04-24 11:17 | -42.82444 | 147.47603 | 183 ft | 95 kts | 317° |
| 2026-04-24 11:17 | -42.82016 | 147.46985 | 380 ft | 88 kts | 311° |
| 2026-04-24 11:17 | -42.81866 | 147.46199 | 572 ft | 95 kts | 255° |
| 2026-04-24 11:17 | -42.82655 | 147.45833 | 820 ft | 107 kts | 153° |
| 2026-04-24 11:18 | -42.83260 | 147.46443 | 932 ft | 111 kts | 144° |
| 2026-04-24 11:18 | -42.83948 | 147.47118 | 850 ft | 128 kts | 146° |
| 2026-04-24 11:18 | -42.84702 | 147.47875 | 726 ft | 135 kts | 131° |
| 2026-04-24 11:18 | -42.84894 | 147.48965 | 643 ft | 120 kts | 65° |
| 2026-04-24 11:19 | -42.84554 | 147.49504 | 439 ft | 112 kts | 19° |
| 2026-04-24 11:19 | -42.83681 | 147.49228 | 284 ft | 99 kts | 320° |
| 2026-04-24 11:19 | -42.83209 | 147.48567 | 119 ft | 92 kts | 318° |
| 2026-04-24 11:19 | -42.82761 | 147.48013 | 107 ft | 79 kts | 319° |
| 2026-04-24 11:20 | -42.82384 | 147.47522 | 223 ft | 66 kts | 321° |
| 2026-04-24 11:20 | -42.82100 | 147.47227 | 568 ft | 47 kts | 334° |
| 2026-04-24 11:20 | -42.81976 | 147.46962 | 674 ft | 63 kts | 275° |
| 2026-04-24 11:20 | -42.82414 | 147.46175 | 880 ft | 91 kts | 207° |
| 2026-04-24 11:21 | -42.83058 | 147.46312 | 1051 ft | 101 kts | 165° |
| 2026-04-24 11:21 | -42.83733 | 147.46718 | 1070 ft | 113 kts | 158° |
| 2026-04-24 11:21 | -42.84495 | 147.47177 | 833 ft | 125 kts | 155° |
| 2026-04-24 11:21 | -42.84987 | 147.47621 | 653 ft | 126 kts | 125° |
| 2026-04-24 11:22 | -42.85102 | 147.48607 | 590 ft | 100 kts | 60° |
| 2026-04-24 11:22 | -42.84667 | 147.49341 | 488 ft | 98 kts | 33° |
| 2026-04-24 11:22 | -42.83854 | 147.49527 | 386 ft | 104 kts | 317° |
| 2026-04-24 11:22 | -42.83376 | 147.48804 | 207 ft | 90 kts | 315° |
| 2026-04-24 11:23 | -42.82996 | 147.48320 | 132 ft | 62 kts | 321° |
| 2026-04-24 11:23 | -42.82709 | 147.47963 | 133 ft | 54 kts | 321° |
| 2026-04-24 11:23 | -42.82418 | 147.47574 | 219 ft | 62 kts | 318° |
| 2026-04-24 11:23 | -42.82199 | 147.47301 | 296 ft | 64 kts | 321° |
| 2026-04-24 11:24 | -42.81823 | 147.46774 | 566 ft | 59 kts | 308° |
| 2026-04-24 11:24 | -42.81884 | 147.46127 | 647 ft | 84 kts | 252° |
| 2026-04-24 11:24 | -42.82378 | 147.45686 | 798 ft | 94 kts | 187° |
| 2026-04-24 11:24 | -42.83019 | 147.45989 | 872 ft | 102 kts | 146° |
| 2026-04-24 11:25 | -42.83427 | 147.46358 | 857 ft | 111 kts | 145° |
| 2026-04-24 11:25 | -42.84339 | 147.47232 | 713 ft | 125 kts | 143° |
| 2026-04-24 11:25 | -42.84975 | 147.48029 | 667 ft | 121 kts | 110° |
| 2026-04-24 11:25 | -42.84869 | 147.49033 | 751 ft | 107 kts | 55° |
| 2026-04-24 11:26 | -42.84306 | 147.49614 | 545 ft | 107 kts | 3° |
| 2026-04-24 11:26 | -42.83711 | 147.49258 | 316 ft | 90 kts | 317° |
| 2026-04-24 11:26 | -42.83432 | 147.48869 | 194 ft | 85 kts | 317° |
| 2026-04-24 11:26 | -42.83050 | 147.48383 | 100 ft | 64 kts | 320° |
| 2026-04-24 11:27 | -42.82750 | 147.48015 | 115 ft | 61 kts | 322° |
| 2026-04-24 11:27 | -42.82305 | 147.47423 | 299 ft | 62 kts | 316° |
| 2026-04-24 11:27 | -42.82072 | 147.47005 | 601 ft | 59 kts | 296° |
| 2026-04-24 11:27 | -42.82243 | 147.46368 | 733 ft | 88 kts | 232° |
| 2026-04-24 11:28 | -42.82888 | 147.46086 | 757 ft | 113 kts | 174° |
| 2026-04-24 11:28 | -42.83581 | 147.46622 | 778 ft | 117 kts | 140° |
| 2026-04-24 11:28 | -42.84196 | 147.47288 | 853 ft | 112 kts | 140° |
| 2026-04-24 11:28 | -42.84602 | 147.47751 | 833 ft | 116 kts | 133° |
| 2026-04-24 11:29 | -42.84834 | 147.49087 | 679 ft | 107 kts | 66° |
| 2026-04-24 11:29 | -42.84427 | 147.49828 | 550 ft | 94 kts | 30° |
| 2026-04-24 11:29 | -42.83919 | 147.49684 | 445 ft | 80 kts | 305° |
| 2026-04-24 11:29 | -42.83581 | 147.49048 | 247 ft | 85 kts | 318° |
| 2026-04-24 11:30 | -42.83162 | 147.48535 | 166 ft | 70 kts | 318° |
| 2026-04-24 11:30 | -42.82851 | 147.48137 | 82 ft | 53 kts | 316° |
| 2026-04-24 11:30 | -42.82717 | 147.47961 | 60 ft | 11 kts | 311° |
| 2026-04-24 11:30 | -42.82790 | 147.47853 | 65 ft | 21 kts | 204° |
| 2026-04-24 11:31 | -42.82894 | 147.47771 | 92 ft | 17 kts | 203° |
| 2026-04-24 11:31 | -42.82914 | 147.47710 | 61 ft | 1 kts | 316° |
| 2026-04-24 11:31 | -42.82916 | 147.47711 | 59 ft | 0 kts | 313° |
| 2026-04-24 11:33 | -42.82910 | 147.47714 | 69 ft | 6 kts | 326° |
| 2026-04-24 11:33 | -42.82878 | 147.47749 | 236 ft | 18 kts | 326° |
| 2026-04-24 11:33 | -42.82748 | 147.47844 | 852 ft | 31 kts | 324° |
| 2026-04-24 11:33 | -42.82516 | 147.48262 | 1152 ft | 76 kts | 67° |
| 2026-04-24 11:34 | -42.82476 | 147.49136 | 993 ft | 112 kts | 96° |
| 2026-04-24 11:34 | -42.82873 | 147.50101 | 812 ft | 124 kts | 159° |
| 2026-04-24 11:34 | -42.83536 | 147.49710 | 823 ft | 87 kts | 252° |
| 2026-04-24 11:34 | -42.83551 | 147.49136 | 718 ft | 57 kts | 287° |
| 2026-04-24 11:35 | -42.83508 | 147.48799 | 569 ft | 51 kts | 289° |